sensor_id;sensor_type;location;lat;lon;timestamp;temperature;humidity
54960;DHT22;40860;51.710;8.736;2022-09-09T00:03:24;16.80;89.70
54960;DHT22;40860;51.710;8.736;2022-09-09T00:07:37;16.90;89.70
54960;DHT22;40860;51.710;8.736;2022-09-09T00:11:47;16.90;89.60
54960;DHT22;40860;51.710;8.736;2022-09-09T00:15:57;17.00;89.80
54960;DHT22;40860;51.710;8.736;2022-09-09T00:20:04;17.00;89.60
54960;DHT22;40860;51.710;8.736;2022-09-09T00:24:23;17.00;89.60
54960;DHT22;40860;51.710;8.736;2022-09-09T00:28:27;17.10;89.50
54960;DHT22;40860;51.710;8.736;2022-09-09T00:32:34;17.20;89.50
54960;DHT22;40860;51.710;8.736;2022-09-09T00:36:40;17.20;89.30
54960;DHT22;40860;51.710;8.736;2022-09-09T00:40:49;17.20;89.20
54960;DHT22;40860;51.710;8.736;2022-09-09T00:44:58;17.20;89.20
54960;DHT22;40860;51.710;8.736;2022-09-09T00:49:08;17.20;89.70
54960;DHT22;40860;51.710;8.736;2022-09-09T00:53:27;17.30;90.00
54960;DHT22;40860;51.710;8.736;2022-09-09T00:57:35;17.20;90.10
54960;DHT22;40860;51.710;8.736;2022-09-09T01:01:39;17.20;90.10
54960;DHT22;40860;51.710;8.736;2022-09-09T01:05:46;17.20;90.40
54960;DHT22;40860;51.710;8.736;2022-09-09T01:09:55;17.20;90.50
54960;DHT22;40860;51.710;8.736;2022-09-09T01:14:05;17.20;90.60
54960;DHT22;40860;51.710;8.736;2022-09-09T01:18:17;17.10;90.70
54960;DHT22;40860;51.710;8.736;2022-09-09T01:22:28;17.10;90.80
54960;DHT22;40860;51.710;8.736;2022-09-09T01:26:39;17.00;90.90
54960;DHT22;40860;51.710;8.736;2022-09-09T01:30:51;17.00;91.00
54960;DHT22;40860;51.710;8.736;2022-09-09T01:34:57;17.00;91.10
54960;DHT22;40860;51.710;8.736;2022-09-09T01:39:01;16.90;91.20
54960;DHT22;40860;51.710;8.736;2022-09-09T01:43:05;16.90;91.10
54960;DHT22;40860;51.710;8.736;2022-09-09T01:47:10;16.80;91.10
54960;DHT22;40860;51.710;8.736;2022-09-09T01:51:29;16.80;91.30
54960;DHT22;40860;51.710;8.736;2022-09-09T01:55:39;16.70;91.40
54960;DHT22;40860;51.710;8.736;2022-09-09T02:00:02;16.60;91.30
54960;DHT22;40860;51.710;8.736;2022-09-09T02:04:24;16.60;91.40
54960;DHT22;40860;51.710;8.736;2022-09-09T02:08:36;16.50;91.60
54960;DHT22;40860;51.710;8.736;2022-09-09T02:12:47;16.50;91.50
54960;DHT22;40860;51.710;8.736;2022-09-09T02:16:56;16.50;91.40
54960;DHT22;40860;51.710;8.736;2022-09-09T02:21:10;16.50;91.30
54960;DHT22;40860;51.710;8.736;2022-09-09T02:25:17;16.60;91.40
54960;DHT22;40860;51.710;8.736;2022-09-09T02:29:26;16.60;91.20
54960;DHT22;40860;51.710;8.736;2022-09-09T02:33:36;16.60;91.00
54960;DHT22;40860;51.710;8.736;2022-09-09T02:37:42;16.70;91.00
54960;DHT22;40860;51.710;8.736;2022-09-09T02:41:48;16.70;91.00
54960;DHT22;40860;51.710;8.736;2022-09-09T02:45:59;16.70;91.00
54960;DHT22;40860;51.710;8.736;2022-09-09T02:50:13;16.70;91.00
54960;DHT22;40860;51.710;8.736;2022-09-09T02:54:24;16.70;91.00
54960;DHT22;40860;51.710;8.736;2022-09-09T02:58:29;16.70;91.00
54960;DHT22;40860;51.710;8.736;2022-09-09T03:02:38;16.80;90.90
54960;DHT22;40860;51.710;8.736;2022-09-09T03:06:43;16.70;91.00
54960;DHT22;40860;51.710;8.736;2022-09-09T03:10:54;16.70;91.10
54960;DHT22;40860;51.710;8.736;2022-09-09T03:14:59;16.70;91.00
54960;DHT22;40860;51.710;8.736;2022-09-09T03:19:03;16.70;91.00
54960;DHT22;40860;51.710;8.736;2022-09-09T03:23:07;16.70;91.00
54960;DHT22;40860;51.710;8.736;2022-09-09T03:27:16;16.60;91.00
54960;DHT22;40860;51.710;8.736;2022-09-09T03:31:21;16.70;91.00
54960;DHT22;40860;51.710;8.736;2022-09-09T03:35:25;16.60;91.10
54960;DHT22;40860;51.710;8.736;2022-09-09T03:39:30;16.60;91.10
54960;DHT22;40860;51.710;8.736;2022-09-09T03:43:33;16.60;91.20
54960;DHT22;40860;51.710;8.736;2022-09-09T03:47:37;16.60;91.30
54960;DHT22;40860;51.710;8.736;2022-09-09T03:51:41;16.60;91.30
54960;DHT22;40860;51.710;8.736;2022-09-09T03:55:50;16.60;91.30
54960;DHT22;40860;51.710;8.736;2022-09-09T03:59:54;16.70;91.20
54960;DHT22;40860;51.710;8.736;2022-09-09T04:03:57;16.70;91.20
54960;DHT22;40860;51.710;8.736;2022-09-09T04:08:01;16.70;91.10
54960;DHT22;40860;51.710;8.736;2022-09-09T04:12:06;16.70;91.20
54960;DHT22;40860;51.710;8.736;2022-09-09T04:16:10;16.80;91.20
54960;DHT22;40860;51.710;8.736;2022-09-09T04:20:15;16.70;91.10
54960;DHT22;40860;51.710;8.736;2022-09-09T04:24:19;16.70;91.10
54960;DHT22;40860;51.710;8.736;2022-09-09T04:28:27;16.80;91.20
54960;DHT22;40860;51.710;8.736;2022-09-09T04:32:32;16.80;91.20
54960;DHT22;40860;51.710;8.736;2022-09-09T04:36:35;16.80;91.30
54960;DHT22;40860;51.710;8.736;2022-09-09T04:40:42;16.80;91.30
54960;DHT22;40860;51.710;8.736;2022-09-09T04:44:46;16.70;91.30
54960;DHT22;40860;51.710;8.736;2022-09-09T04:48:50;16.70;91.30
54960;DHT22;40860;51.710;8.736;2022-09-09T04:52:55;16.60;91.60
54960;DHT22;40860;51.710;8.736;2022-09-09T04:56:58;16.50;91.60
54960;DHT22;40860;51.710;8.736;2022-09-09T05:01:08;16.50;91.80
54960;DHT22;40860;51.710;8.736;2022-09-09T05:05:13;16.50;91.80
54960;DHT22;40860;51.710;8.736;2022-09-09T05:09:16;16.40;91.90
54960;DHT22;40860;51.710;8.736;2022-09-09T05:13:20;16.40;91.90
54960;DHT22;40860;51.710;8.736;2022-09-09T05:17:25;16.30;91.90
54960;DHT22;40860;51.710;8.736;2022-09-09T05:21:29;16.30;92.20
54960;DHT22;40860;51.710;8.736;2022-09-09T05:25:32;16.30;92.00
54960;DHT22;40860;51.710;8.736;2022-09-09T05:29:35;16.40;92.00
54960;DHT22;40860;51.710;8.736;2022-09-09T05:33:42;16.40;91.90
54960;DHT22;40860;51.710;8.736;2022-09-09T05:37:48;16.40;91.80
54960;DHT22;40860;51.710;8.736;2022-09-09T05:41:51;16.50;91.60
54960;DHT22;40860;51.710;8.736;2022-09-09T05:46:01;16.70;91.50
54960;DHT22;40860;51.710;8.736;2022-09-09T05:50:08;16.80;91.40
54960;DHT22;40860;51.710;8.736;2022-09-09T05:54:11;16.90;91.20
54960;DHT22;40860;51.710;8.736;2022-09-09T05:58:20;17.00;91.10
54960;DHT22;40860;51.710;8.736;2022-09-09T06:02:24;17.20;90.90
54960;DHT22;40860;51.710;8.736;2022-09-09T06:06:32;17.30;90.70
54960;DHT22;40860;51.710;8.736;2022-09-09T06:10:42;17.50;90.60
54960;DHT22;40860;51.710;8.736;2022-09-09T06:14:45;17.70;90.20
54960;DHT22;40860;51.710;8.736;2022-09-09T06:18:50;17.80;90.00
54960;DHT22;40860;51.710;8.736;2022-09-09T06:22:54;17.80;89.80
54960;DHT22;40860;51.710;8.736;2022-09-09T06:26:57;17.90;89.40
54960;DHT22;40860;51.710;8.736;2022-09-09T06:31:05;17.90;89.50
54960;DHT22;40860;51.710;8.736;2022-09-09T06:35:09;17.90;89.40
54960;DHT22;40860;51.710;8.736;2022-09-09T06:39:13;17.90;89.00
54960;DHT22;40860;51.710;8.736;2022-09-09T06:43:17;18.00;89.10
54960;DHT22;40860;51.710;8.736;2022-09-09T06:47:24;18.00;88.70
54960;DHT22;40860;51.710;8.736;2022-09-09T06:51:29;18.00;88.60
54960;DHT22;40860;51.710;8.736;2022-09-09T06:55:34;18.00;89.00
54960;DHT22;40860;51.710;8.736;2022-09-09T06:59:38;18.00;88.80
54960;DHT22;40860;51.710;8.736;2022-09-09T07:03:42;18.00;88.70
54960;DHT22;40860;51.710;8.736;2022-09-09T07:07:47;18.00;88.30
54960;DHT22;40860;51.710;8.736;2022-09-09T07:11:54;18.00;88.90
54960;DHT22;40860;51.710;8.736;2022-09-09T07:16:04;18.00;89.00
54960;DHT22;40860;51.710;8.736;2022-09-09T07:20:08;18.00;88.70
54960;DHT22;40860;51.710;8.736;2022-09-09T07:24:12;18.00;88.80
54960;DHT22;40860;51.710;8.736;2022-09-09T07:28:18;18.10;88.50
54960;DHT22;40860;51.710;8.736;2022-09-09T07:32:21;18.10;88.60
54960;DHT22;40860;51.710;8.736;2022-09-09T07:36:26;18.20;88.20
54960;DHT22;40860;51.710;8.736;2022-09-09T07:40:35;18.20;88.20
54960;DHT22;40860;51.710;8.736;2022-09-09T07:44:40;18.30;87.60
54960;DHT22;40860;51.710;8.736;2022-09-09T07:48:47;18.40;87.50
54960;DHT22;40860;51.710;8.736;2022-09-09T07:52:54;18.50;87.40
54960;DHT22;40860;51.710;8.736;2022-09-09T07:56:59;18.60;87.00
54960;DHT22;40860;51.710;8.736;2022-09-09T08:01:09;18.80;86.80
54960;DHT22;40860;51.710;8.736;2022-09-09T08:05:13;18.70;86.80
54960;DHT22;40860;51.710;8.736;2022-09-09T08:09:16;18.70;86.80
54960;DHT22;40860;51.710;8.736;2022-09-09T08:13:21;18.50;86.70
54960;DHT22;40860;51.710;8.736;2022-09-09T08:17:28;18.10;86.90
54960;DHT22;40860;51.710;8.736;2022-09-09T08:21:36;18.00;88.50
54960;DHT22;40860;51.710;8.736;2022-09-09T08:25:40;18.20;89.70
54960;DHT22;40860;51.710;8.736;2022-09-09T08:29:43;18.80;90.40
54960;DHT22;40860;51.710;8.736;2022-09-09T08:33:48;19.50;89.20
54960;DHT22;40860;51.710;8.736;2022-09-09T08:37:54;20.20;86.20
54960;DHT22;40860;51.710;8.736;2022-09-09T08:42:21;20.90;82.70
54960;DHT22;40860;51.710;8.736;2022-09-09T08:46:32;21.30;78.50
54960;DHT22;40860;51.710;8.736;2022-09-09T08:50:40;21.00;78.70
54960;DHT22;40860;51.710;8.736;2022-09-09T08:54:50;20.80;80.30
54960;DHT22;40860;51.710;8.736;2022-09-09T08:58:56;20.70;80.30
54960;DHT22;40860;51.710;8.736;2022-09-09T09:03:17;20.40;80.70
54960;DHT22;40860;51.710;8.736;2022-09-09T09:07:33;20.40;82.00
54960;DHT22;40860;51.710;8.736;2022-09-09T09:11:44;20.50;81.10
54960;DHT22;40860;51.710;8.736;2022-09-09T09:15:52;20.40;80.40
54960;DHT22;40860;51.710;8.736;2022-09-09T09:19:57;20.30;80.50
54960;DHT22;40860;51.710;8.736;2022-09-09T09:24:07;20.10;80.20
54960;DHT22;40860;51.710;8.736;2022-09-09T09:28:25;19.90;80.90
54960;DHT22;40860;51.710;8.736;2022-09-09T09:32:36;20.00;81.20
54960;DHT22;40860;51.710;8.736;2022-09-09T09:36:44;20.10;80.60
54960;DHT22;40860;51.710;8.736;2022-09-09T09:40:53;20.20;79.40
54960;DHT22;40860;51.710;8.736;2022-09-09T09:45:07;20.30;76.80
54960;DHT22;40860;51.710;8.736;2022-09-09T09:49:12;20.70;76.00
54960;DHT22;40860;51.710;8.736;2022-09-09T09:53:21;20.90;74.80
54960;DHT22;40860;51.710;8.736;2022-09-09T09:57:29;20.90;72.50
54960;DHT22;40860;51.710;8.736;2022-09-09T10:01:35;21.50;69.70
54960;DHT22;40860;51.710;8.736;2022-09-09T10:05:46;21.60;68.90
54960;DHT22;40860;51.710;8.736;2022-09-09T10:09:52;21.50;67.80
54960;DHT22;40860;51.710;8.736;2022-09-09T10:14:04;21.40;67.30
54960;DHT22;40860;51.710;8.736;2022-09-09T10:18:28;21.50;64.60
54960;DHT22;40860;51.710;8.736;2022-09-09T10:22:33;21.50;64.40
54960;DHT22;40860;51.710;8.736;2022-09-09T10:26:44;21.20;63.60
54960;DHT22;40860;51.710;8.736;2022-09-09T10:30:57;21.10;65.50
54960;DHT22;40860;51.710;8.736;2022-09-09T10:35:10;21.20;64.90
54960;DHT22;40860;51.710;8.736;2022-09-09T10:39:26;21.60;64.30
54960;DHT22;40860;51.710;8.736;2022-09-09T10:43:51;22.00;63.00
54960;DHT22;40860;51.710;8.736;2022-09-09T10:48:11;22.20;62.70
54960;DHT22;40860;51.710;8.736;2022-09-09T10:52:20;22.20;61.00
54960;DHT22;40860;51.710;8.736;2022-09-09T10:56:28;22.10;61.00
54960;DHT22;40860;51.710;8.736;2022-09-09T11:00:38;22.00;61.20
54960;DHT22;40860;51.710;8.736;2022-09-09T11:04:47;22.40;61.30
54960;DHT22;40860;51.710;8.736;2022-09-09T11:08:52;22.30;58.70
54960;DHT22;40860;51.710;8.736;2022-09-09T11:13:01;22.50;58.50
54960;DHT22;40860;51.710;8.736;2022-09-09T11:17:10;22.90;57.10
54960;DHT22;40860;51.710;8.736;2022-09-09T11:21:19;23.00;56.60
54960;DHT22;40860;51.710;8.736;2022-09-09T11:25:27;22.80;56.40
54960;DHT22;40860;51.710;8.736;2022-09-09T11:29:51;23.10;56.70
54960;DHT22;40860;51.710;8.736;2022-09-09T11:34:05;23.00;55.90
54960;DHT22;40860;51.710;8.736;2022-09-09T11:38:25;23.30;56.80
54960;DHT22;40860;51.710;8.736;2022-09-09T11:42:28;23.50;55.30
54960;DHT22;40860;51.710;8.736;2022-09-09T11:46:34;23.50;53.80
54960;DHT22;40860;51.710;8.736;2022-09-09T11:50:39;23.20;54.60
54960;DHT22;40860;51.710;8.736;2022-09-09T11:54:48;23.20;55.50
54960;DHT22;40860;51.710;8.736;2022-09-09T11:58:57;23.40;54.90
54960;DHT22;40860;51.710;8.736;2022-09-09T12:03:03;23.40;55.00
54960;DHT22;40860;51.710;8.736;2022-09-09T12:07:25;23.00;56.00
54960;DHT22;40860;51.710;8.736;2022-09-09T12:11:32;23.00;56.50
54960;DHT22;40860;51.710;8.736;2022-09-09T12:15:47;23.00;56.30
54960;DHT22;40860;51.710;8.736;2022-09-09T12:20:00;23.00;55.80
54960;DHT22;40860;51.710;8.736;2022-09-09T12:24:09;23.10;56.40
54960;DHT22;40860;51.710;8.736;2022-09-09T12:28:17;23.20;56.60
54960;DHT22;40860;51.710;8.736;2022-09-09T12:32:22;23.20;56.70
54960;DHT22;40860;51.710;8.736;2022-09-09T12:36:29;23.50;55.30
54960;DHT22;40860;51.710;8.736;2022-09-09T12:40:34;23.60;54.50
54960;DHT22;40860;51.710;8.736;2022-09-09T12:44:39;23.60;54.00
54960;DHT22;40860;51.710;8.736;2022-09-09T12:48:44;23.60;54.90
54960;DHT22;40860;51.710;8.736;2022-09-09T12:52:50;23.60;54.20
54960;DHT22;40860;51.710;8.736;2022-09-09T12:56:54;23.60;54.70
54960;DHT22;40860;51.710;8.736;2022-09-09T13:01:00;23.70;53.60
54960;DHT22;40860;51.710;8.736;2022-09-09T13:05:14;23.70;54.20
54960;DHT22;40860;51.710;8.736;2022-09-09T13:09:18;23.90;52.80
54960;DHT22;40860;51.710;8.736;2022-09-09T13:13:23;23.80;53.10
54960;DHT22;40860;51.710;8.736;2022-09-09T13:17:29;23.30;52.60
54960;DHT22;40860;51.710;8.736;2022-09-09T13:21:33;23.40;53.00
54960;DHT22;40860;51.710;8.736;2022-09-09T13:25:38;23.70;53.60
54960;DHT22;40860;51.710;8.736;2022-09-09T13:29:51;23.90;52.60
54960;DHT22;40860;51.710;8.736;2022-09-09T13:33:57;23.80;52.50
54960;DHT22;40860;51.710;8.736;2022-09-09T13:38:07;23.70;52.40
54960;DHT22;40860;51.710;8.736;2022-09-09T13:42:23;23.50;52.70
54960;DHT22;40860;51.710;8.736;2022-09-09T13:46:32;23.20;53.00
54960;DHT22;40860;51.710;8.736;2022-09-09T13:50:37;23.30;52.40
54960;DHT22;40860;51.710;8.736;2022-09-09T13:54:40;23.30;52.10
54960;DHT22;40860;51.710;8.736;2022-09-09T13:58:43;23.50;51.50
54960;DHT22;40860;51.710;8.736;2022-09-09T14:02:46;23.70;50.60
54960;DHT22;40860;51.710;8.736;2022-09-09T14:06:50;23.90;51.10
54960;DHT22;40860;51.710;8.736;2022-09-09T14:10:53;24.20;50.20
54960;DHT22;40860;51.710;8.736;2022-09-09T14:14:57;24.40;49.80
54960;DHT22;40860;51.710;8.736;2022-09-09T14:19:01;24.20;50.00
54960;DHT22;40860;51.710;8.736;2022-09-09T14:23:05;24.00;50.30
54960;DHT22;40860;51.710;8.736;2022-09-09T14:27:08;23.80;51.10
54960;DHT22;40860;51.710;8.736;2022-09-09T14:31:11;23.70;51.30
54960;DHT22;40860;51.710;8.736;2022-09-09T14:35:15;23.50;52.00
54960;DHT22;40860;51.710;8.736;2022-09-09T14:39:20;23.50;52.20
54960;DHT22;40860;51.710;8.736;2022-09-09T14:43:22;23.50;52.00
54960;DHT22;40860;51.710;8.736;2022-09-09T14:47:25;23.60;51.10
54960;DHT22;40860;51.710;8.736;2022-09-09T14:51:28;23.70;51.10
54960;DHT22;40860;51.710;8.736;2022-09-09T14:55:33;23.50;50.80
54960;DHT22;40860;51.710;8.736;2022-09-09T14:59:36;23.60;51.40
54960;DHT22;40860;51.710;8.736;2022-09-09T15:03:40;23.70;51.20
54960;DHT22;40860;51.710;8.736;2022-09-09T15:07:43;23.80;51.60
54960;DHT22;40860;51.710;8.736;2022-09-09T15:11:47;23.70;52.10
54960;DHT22;40860;51.710;8.736;2022-09-09T15:15:50;23.50;51.90
54960;DHT22;40860;51.710;8.736;2022-09-09T15:19:53;23.40;52.20
54960;DHT22;40860;51.710;8.736;2022-09-09T15:23:56;23.20;51.40
54960;DHT22;40860;51.710;8.736;2022-09-09T15:28:02;23.20;51.40
54960;DHT22;40860;51.710;8.736;2022-09-09T15:32:05;23.60;50.70
54960;DHT22;40860;51.710;8.736;2022-09-09T15:36:15;23.60;51.00
54960;DHT22;40860;51.710;8.736;2022-09-09T15:40:17;23.60;50.50
54960;DHT22;40860;51.710;8.736;2022-09-09T15:44:22;23.50;51.70
54960;DHT22;40860;51.710;8.736;2022-09-09T15:48:30;23.40;51.60
54960;DHT22;40860;51.710;8.736;2022-09-09T15:52:34;23.20;52.20
54960;DHT22;40860;51.710;8.736;2022-09-09T15:56:37;23.10;53.00
54960;DHT22;40860;51.710;8.736;2022-09-09T16:00:41;23.00;52.90
54960;DHT22;40860;51.710;8.736;2022-09-09T16:04:44;22.80;53.40
54960;DHT22;40860;51.710;8.736;2022-09-09T16:08:48;22.70;54.10
54960;DHT22;40860;51.710;8.736;2022-09-09T16:12:52;22.60;54.40
54960;DHT22;40860;51.710;8.736;2022-09-09T16:16:58;22.40;54.80
54960;DHT22;40860;51.710;8.736;2022-09-09T16:21:01;22.30;55.60
54960;DHT22;40860;51.710;8.736;2022-09-09T16:25:05;22.20;56.60
54960;DHT22;40860;51.710;8.736;2022-09-09T16:29:08;22.00;57.10
54960;DHT22;40860;51.710;8.736;2022-09-09T16:33:12;22.00;57.50
54960;DHT22;40860;51.710;8.736;2022-09-09T16:37:16;21.90;57.70
54960;DHT22;40860;51.710;8.736;2022-09-09T16:41:19;21.70;58.40
54960;DHT22;40860;51.710;8.736;2022-09-09T16:45:22;21.50;57.90
54960;DHT22;40860;51.710;8.736;2022-09-09T16:49:26;21.30;59.50
54960;DHT22;40860;51.710;8.736;2022-09-09T16:53:29;20.80;62.10
54960;DHT22;40860;51.710;8.736;2022-09-09T16:57:32;20.60;65.90
54960;DHT22;40860;51.710;8.736;2022-09-09T17:01:37;20.30;68.20
54960;DHT22;40860;51.710;8.736;2022-09-09T17:05:43;20.10;69.30
54960;DHT22;40860;51.710;8.736;2022-09-09T17:09:47;20.00;70.40
54960;DHT22;40860;51.710;8.736;2022-09-09T17:13:50;19.90;72.00
54960;DHT22;40860;51.710;8.736;2022-09-09T17:17:53;19.90;71.50
54960;DHT22;40860;51.710;8.736;2022-09-09T17:21:57;19.70;74.00
54960;DHT22;40860;51.710;8.736;2022-09-09T17:26:20;19.60;74.70
54960;DHT22;40860;51.710;8.736;2022-09-09T17:30:24;19.50;75.30
54960;DHT22;40860;51.710;8.736;2022-09-09T17:34:26;19.40;76.00
54960;DHT22;40860;51.710;8.736;2022-09-09T17:38:31;19.30;76.80
54960;DHT22;40860;51.710;8.736;2022-09-09T17:42:34;19.10;77.20
54960;DHT22;40860;51.710;8.736;2022-09-09T17:46:43;19.10;77.50
54960;DHT22;40860;51.710;8.736;2022-09-09T17:50:57;19.10;77.60
54960;DHT22;40860;51.710;8.736;2022-09-09T17:55:01;19.10;78.00
54960;DHT22;40860;51.710;8.736;2022-09-09T17:59:07;19.10;78.20
54960;DHT22;40860;51.710;8.736;2022-09-09T18:03:10;19.10;78.00
54960;DHT22;40860;51.710;8.736;2022-09-09T18:07:13;19.00;78.30
54960;DHT22;40860;51.710;8.736;2022-09-09T18:11:22;18.90;79.20
54960;DHT22;40860;51.710;8.736;2022-09-09T18:15:25;18.80;79.60
54960;DHT22;40860;51.710;8.736;2022-09-09T18:19:48;18.70;80.60
54960;DHT22;40860;51.710;8.736;2022-09-09T18:23:51;18.60;81.50
54960;DHT22;40860;51.710;8.736;2022-09-09T18:27:55;18.50;82.00
54960;DHT22;40860;51.710;8.736;2022-09-09T18:31:59;18.30;83.20
54960;DHT22;40860;51.710;8.736;2022-09-09T18:36:04;18.20;84.70
54960;DHT22;40860;51.710;8.736;2022-09-09T18:40:07;18.20;84.90
54960;DHT22;40860;51.710;8.736;2022-09-09T18:44:16;18.10;85.60
54960;DHT22;40860;51.710;8.736;2022-09-09T18:48:19;18.00;86.20
54960;DHT22;40860;51.710;8.736;2022-09-09T18:52:22;17.90;86.90
54960;DHT22;40860;51.710;8.736;2022-09-09T18:56:26;17.90;87.50
54960;DHT22;40860;51.710;8.736;2022-09-09T19:00:33;17.80;88.70
54960;DHT22;40860;51.710;8.736;2022-09-09T19:04:36;17.80;89.60
54960;DHT22;40860;51.710;8.736;2022-09-09T19:08:40;17.60;90.10
54960;DHT22;40860;51.710;8.736;2022-09-09T19:12:43;17.60;90.10
54960;DHT22;40860;51.710;8.736;2022-09-09T19:16:47;17.60;90.30
54960;DHT22;40860;51.710;8.736;2022-09-09T19:20:50;17.60;90.40
54960;DHT22;40860;51.710;8.736;2022-09-09T19:24:53;17.60;90.10
54960;DHT22;40860;51.710;8.736;2022-09-09T19:28:56;17.60;90.00
54960;DHT22;40860;51.710;8.736;2022-09-09T19:33:00;17.60;89.50
54960;DHT22;40860;51.710;8.736;2022-09-09T19:37:05;17.60;89.20
54960;DHT22;40860;51.710;8.736;2022-09-09T19:41:10;17.50;88.90
54960;DHT22;40860;51.710;8.736;2022-09-09T19:45:13;17.50;89.10
54960;DHT22;40860;51.710;8.736;2022-09-09T19:49:17;17.40;89.10
54960;DHT22;40860;51.710;8.736;2022-09-09T19:53:20;17.40;89.10
54960;DHT22;40860;51.710;8.736;2022-09-09T19:57:23;17.30;89.50
54960;DHT22;40860;51.710;8.736;2022-09-09T20:01:30;17.20;89.30
54960;DHT22;40860;51.710;8.736;2022-09-09T20:05:41;17.20;88.80
54960;DHT22;40860;51.710;8.736;2022-09-09T20:09:44;17.20;88.90
54960;DHT22;40860;51.710;8.736;2022-09-09T20:13:47;17.20;89.00
54960;DHT22;40860;51.710;8.736;2022-09-09T20:17:50;17.10;89.00
54960;DHT22;40860;51.710;8.736;2022-09-09T20:21:54;17.00;89.60
54960;DHT22;40860;51.710;8.736;2022-09-09T20:26:00;16.90;90.00
54960;DHT22;40860;51.710;8.736;2022-09-09T20:30:04;16.80;90.50
54960;DHT22;40860;51.710;8.736;2022-09-09T20:34:10;16.70;90.20
54960;DHT22;40860;51.710;8.736;2022-09-09T20:38:14;16.70;90.30
54960;DHT22;40860;51.710;8.736;2022-09-09T20:42:17;16.70;90.30
54960;DHT22;40860;51.710;8.736;2022-09-09T20:46:22;16.70;90.30
54960;DHT22;40860;51.710;8.736;2022-09-09T20:50:25;16.60;90.50
54960;DHT22;40860;51.710;8.736;2022-09-09T20:54:29;16.60;90.50
54960;DHT22;40860;51.710;8.736;2022-09-09T20:58:33;16.60;90.80
54960;DHT22;40860;51.710;8.736;2022-09-09T21:02:36;16.60;90.60
54960;DHT22;40860;51.710;8.736;2022-09-09T21:06:39;16.60;90.70
54960;DHT22;40860;51.710;8.736;2022-09-09T21:10:44;16.50;90.70
54960;DHT22;40860;51.710;8.736;2022-09-09T21:14:47;16.50;90.70
54960;DHT22;40860;51.710;8.736;2022-09-09T21:18:50;16.50;90.70
54960;DHT22;40860;51.710;8.736;2022-09-09T21:22:52;16.60;90.70
54960;DHT22;40860;51.710;8.736;2022-09-09T21:26:57;16.50;90.90
54960;DHT22;40860;51.710;8.736;2022-09-09T21:31:01;16.40;90.90
54960;DHT22;40860;51.710;8.736;2022-09-09T21:35:05;16.40;91.00
54960;DHT22;40860;51.710;8.736;2022-09-09T21:39:08;16.30;91.10
54960;DHT22;40860;51.710;8.736;2022-09-09T21:43:13;16.30;91.20
54960;DHT22;40860;51.710;8.736;2022-09-09T21:47:15;16.20;91.30
54960;DHT22;40860;51.710;8.736;2022-09-09T21:51:18;16.20;91.40
54960;DHT22;40860;51.710;8.736;2022-09-09T21:55:21;16.20;91.40
54960;DHT22;40860;51.710;8.736;2022-09-09T21:59:26;16.20;91.40
54960;DHT22;40860;51.710;8.736;2022-09-09T22:03:29;16.10;91.40
54960;DHT22;40860;51.710;8.736;2022-09-09T22:07:32;16.20;91.50
54960;DHT22;40860;51.710;8.736;2022-09-09T22:11:34;16.10;91.50
54960;DHT22;40860;51.710;8.736;2022-09-09T22:15:41;16.10;91.60
54960;DHT22;40860;51.710;8.736;2022-09-09T22:19:44;16.20;91.70
54960;DHT22;40860;51.710;8.736;2022-09-09T22:23:50;16.10;91.70
54960;DHT22;40860;51.710;8.736;2022-09-09T22:27:53;16.20;91.50
54960;DHT22;40860;51.710;8.736;2022-09-09T22:31:58;16.20;91.40
54960;DHT22;40860;51.710;8.736;2022-09-09T22:36:02;16.20;91.60
54960;DHT22;40860;51.710;8.736;2022-09-09T22:40:06;16.10;91.70
54960;DHT22;40860;51.710;8.736;2022-09-09T22:44:09;16.10;91.60
54960;DHT22;40860;51.710;8.736;2022-09-09T22:48:14;16.10;91.60
54960;DHT22;40860;51.710;8.736;2022-09-09T22:52:16;16.10;91.60
54960;DHT22;40860;51.710;8.736;2022-09-09T22:56:19;16.10;91.50
54960;DHT22;40860;51.710;8.736;2022-09-09T23:00:22;16.10;91.60
54960;DHT22;40860;51.710;8.736;2022-09-09T23:04:27;16.10;91.60
54960;DHT22;40860;51.710;8.736;2022-09-09T23:08:31;16.10;91.50
54960;DHT22;40860;51.710;8.736;2022-09-09T23:12:35;16.00;91.70
54960;DHT22;40860;51.710;8.736;2022-09-09T23:16:41;16.00;91.70
54960;DHT22;40860;51.710;8.736;2022-09-09T23:20:55;16.00;91.80
54960;DHT22;40860;51.710;8.736;2022-09-09T23:24:59;15.90;91.80
54960;DHT22;40860;51.710;8.736;2022-09-09T23:29:01;15.90;91.80
54960;DHT22;40860;51.710;8.736;2022-09-09T23:33:04;15.90;91.80
54960;DHT22;40860;51.710;8.736;2022-09-09T23:37:08;16.00;91.70
54960;DHT22;40860;51.710;8.736;2022-09-09T23:41:13;15.90;91.80
54960;DHT22;40860;51.710;8.736;2022-09-09T23:45:16;15.90;91.90
54960;DHT22;40860;51.710;8.736;2022-09-09T23:49:19;15.90;91.90
54960;DHT22;40860;51.710;8.736;2022-09-09T23:53:24;15.90;92.00
54960;DHT22;40860;51.710;8.736;2022-09-09T23:57:27;15.90;92.00
